sensor_id;sensor_type;location;lat;lon;timestamp;P1;durP1;ratioP1;P2;durP2;ratioP2
36827;SDS011;22766;48.042;11.192;2022-10-31T00:01:15;4.88;;;2.33;;
36827;SDS011;22766;48.042;11.192;2022-10-31T00:03:43;10.98;;;2.85;;
36827;SDS011;22766;48.042;11.192;2022-10-31T00:06:10;4.38;;;2.55;;
36827;SDS011;22766;48.042;11.192;2022-10-31T00:08:36;4.30;;;2.33;;
36827;SDS011;22766;48.042;11.192;2022-10-31T00:11:03;5.45;;;2.65;;
36827;SDS011;22766;48.042;11.192;2022-10-31T00:13:30;4.97;;;2.58;;
36827;SDS011;22766;48.042;11.192;2022-10-31T00:15:57;7.38;;;2.85;;
36827;SDS011;22766;48.042;11.192;2022-10-31T00:18:24;5.88;;;2.88;;
36827;SDS011;22766;48.042;11.192;2022-10-31T00:20:58;11.52;;;3.08;;
36827;SDS011;22766;48.042;11.192;2022-10-31T00:23:25;9.25;;;3.15;;
36827;SDS011;22766;48.042;11.192;2022-10-31T00:25:52;10.45;;;3.65;;
36827;SDS011;22766;48.042;11.192;2022-10-31T00:28:18;7.35;;;2.50;;
36827;SDS011;22766;48.042;11.192;2022-10-31T00:30:50;6.88;;;2.75;;
36827;SDS011;22766;48.042;11.192;2022-10-31T00:33:16;5.70;;;2.10;;
36827;SDS011;22766;48.042;11.192;2022-10-31T00:35:48;4.70;;;2.15;;
36827;SDS011;22766;48.042;11.192;2022-10-31T00:38:16;5.35;;;2.15;;
36827;SDS011;22766;48.042;11.192;2022-10-31T00:40:43;7.78;;;3.05;;
36827;SDS011;22766;48.042;11.192;2022-10-31T00:43:09;9.52;;;3.17;;
36827;SDS011;22766;48.042;11.192;2022-10-31T00:45:37;8.00;;;3.40;;
36827;SDS011;22766;48.042;11.192;2022-10-31T00:48:03;8.52;;;2.83;;
36827;SDS011;22766;48.042;11.192;2022-10-31T00:50:30;3.80;;;2.50;;
36827;SDS011;22766;48.042;11.192;2022-10-31T00:52:58;9.70;;;2.65;;
36827;SDS011;22766;48.042;11.192;2022-10-31T00:55:24;5.82;;;2.17;;
36827;SDS011;22766;48.042;11.192;2022-10-31T00:57:51;8.48;;;2.50;;
36827;SDS011;22766;48.042;11.192;2022-10-31T01:00:19;5.50;;;2.53;;
36827;SDS011;22766;48.042;11.192;2022-10-31T01:02:46;7.13;;;2.75;;
36827;SDS011;22766;48.042;11.192;2022-10-31T01:05:13;4.30;;;2.13;;
36827;SDS011;22766;48.042;11.192;2022-10-31T01:07:40;6.95;;;2.17;;
36827;SDS011;22766;48.042;11.192;2022-10-31T01:10:08;5.13;;;2.45;;
36827;SDS011;22766;48.042;11.192;2022-10-31T01:12:37;4.57;;;1.90;;
36827;SDS011;22766;48.042;11.192;2022-10-31T01:17:35;7.30;;;2.53;;
36827;SDS011;22766;48.042;11.192;2022-10-31T01:20:02;6.10;;;2.13;;
36827;SDS011;22766;48.042;11.192;2022-10-31T01:22:30;4.95;;;1.50;;
36827;SDS011;22766;48.042;11.192;2022-10-31T01:24:59;5.03;;;2.13;;
36827;SDS011;22766;48.042;11.192;2022-10-31T01:27:28;6.18;;;2.33;;
36827;SDS011;22766;48.042;11.192;2022-10-31T01:29:55;3.83;;;1.73;;
36827;SDS011;22766;48.042;11.192;2022-10-31T01:32:22;7.70;;;1.90;;
36827;SDS011;22766;48.042;11.192;2022-10-31T01:34:49;6.90;;;2.28;;
36827;SDS011;22766;48.042;11.192;2022-10-31T01:37:16;5.10;;;1.95;;
36827;SDS011;22766;48.042;11.192;2022-10-31T01:39:43;5.18;;;2.30;;
36827;SDS011;22766;48.042;11.192;2022-10-31T01:42:11;5.60;;;1.88;;
36827;SDS011;22766;48.042;11.192;2022-10-31T01:44:55;4.43;;;1.90;;
36827;SDS011;22766;48.042;11.192;2022-10-31T01:47:31;3.35;;;1.90;;
36827;SDS011;22766;48.042;11.192;2022-10-31T01:50:03;2.75;;;1.50;;
36827;SDS011;22766;48.042;11.192;2022-10-31T01:52:36;2.65;;;1.45;;
36827;SDS011;22766;48.042;11.192;2022-10-31T01:55:12;4.77;;;1.87;;
36827;SDS011;22766;48.042;11.192;2022-10-31T01:57:43;7.90;;;1.70;;
36827;SDS011;22766;48.042;11.192;2022-10-31T02:00:14;6.05;;;2.00;;
36827;SDS011;22766;48.042;11.192;2022-10-31T02:02:41;6.30;;;2.05;;
36827;SDS011;22766;48.042;11.192;2022-10-31T02:05:09;3.47;;;1.90;;
36827;SDS011;22766;48.042;11.192;2022-10-31T02:08:25;4.88;;;1.80;;
36827;SDS011;22766;48.042;11.192;2022-10-31T02:10:34;3.70;;;1.58;;
36827;SDS011;22766;48.042;11.192;2022-10-31T02:13:04;6.25;;;1.55;;
36827;SDS011;22766;48.042;11.192;2022-10-31T02:15:36;4.95;;;1.27;;
36827;SDS011;22766;48.042;11.192;2022-10-31T02:18:04;2.75;;;1.35;;
36827;SDS011;22766;48.042;11.192;2022-10-31T02:20:36;3.13;;;1.60;;
36827;SDS011;22766;48.042;11.192;2022-10-31T02:23:25;3.83;;;1.50;;
36827;SDS011;22766;48.042;11.192;2022-10-31T02:34:19;3.90;;;1.90;;
36827;SDS011;22766;48.042;11.192;2022-10-31T02:36:56;5.50;;;1.65;;
36827;SDS011;22766;48.042;11.192;2022-10-31T02:42:26;3.38;;;1.35;;
36827;SDS011;22766;48.042;11.192;2022-10-31T02:45:14;3.28;;;1.67;;
36827;SDS011;22766;48.042;11.192;2022-10-31T02:47:45;3.33;;;1.67;;
36827;SDS011;22766;48.042;11.192;2022-10-31T02:50:26;3.25;;;2.25;;
36827;SDS011;22766;48.042;11.192;2022-10-31T02:52:57;5.00;;;1.48;;
36827;SDS011;22766;48.042;11.192;2022-10-31T02:58:04;6.63;;;2.15;;
36827;SDS011;22766;48.042;11.192;2022-10-31T03:00:40;2.72;;;1.33;;
36827;SDS011;22766;48.042;11.192;2022-10-31T03:03:19;4.10;;;1.40;;
36827;SDS011;22766;48.042;11.192;2022-10-31T03:11:22;5.72;;;3.05;;
36827;SDS011;22766;48.042;11.192;2022-10-31T03:13:59;7.07;;;2.10;;
36827;SDS011;22766;48.042;11.192;2022-10-31T03:16:47;4.45;;;2.13;;
36827;SDS011;22766;48.042;11.192;2022-10-31T03:24:38;2.60;;;1.20;;
36827;SDS011;22766;48.042;11.192;2022-10-31T03:27:06;9.20;;;2.05;;
36827;SDS011;22766;48.042;11.192;2022-10-31T03:29:36;3.00;;;1.60;;
36827;SDS011;22766;48.042;11.192;2022-10-31T03:34:32;3.25;;;1.50;;
36827;SDS011;22766;48.042;11.192;2022-10-31T03:37:04;4.43;;;1.70;;
36827;SDS011;22766;48.042;11.192;2022-10-31T03:39:36;3.22;;;1.60;;
36827;SDS011;22766;48.042;11.192;2022-10-31T03:42:07;2.90;;;1.25;;
36827;SDS011;22766;48.042;11.192;2022-10-31T03:47:07;2.50;;;1.40;;
36827;SDS011;22766;48.042;11.192;2022-10-31T03:49:33;3.85;;;1.40;;
36827;SDS011;22766;48.042;11.192;2022-10-31T04:02:47;2.67;;;1.45;;
36827;SDS011;22766;48.042;11.192;2022-10-31T04:05:22;2.63;;;1.40;;
36827;SDS011;22766;48.042;11.192;2022-10-31T04:07:51;3.88;;;1.63;;
36827;SDS011;22766;48.042;11.192;2022-10-31T04:10:20;3.63;;;1.58;;
36827;SDS011;22766;48.042;11.192;2022-10-31T04:13:00;3.65;;;1.77;;
36827;SDS011;22766;48.042;11.192;2022-10-31T04:15:43;3.55;;;2.20;;
36827;SDS011;22766;48.042;11.192;2022-10-31T04:18:11;3.70;;;1.63;;
36827;SDS011;22766;48.042;11.192;2022-10-31T04:20:39;2.83;;;1.17;;
36827;SDS011;22766;48.042;11.192;2022-10-31T04:23:18;1.98;;;1.48;;
36827;SDS011;22766;48.042;11.192;2022-10-31T04:25:47;3.22;;;1.63;;
36827;SDS011;22766;48.042;11.192;2022-10-31T04:28:15;4.38;;;1.30;;
36827;SDS011;22766;48.042;11.192;2022-10-31T04:30:42;4.68;;;1.50;;
36827;SDS011;22766;48.042;11.192;2022-10-31T04:33:09;2.42;;;1.30;;
36827;SDS011;22766;48.042;11.192;2022-10-31T04:35:36;2.40;;;1.23;;
36827;SDS011;22766;48.042;11.192;2022-10-31T04:38:02;1.95;;;1.20;;
36827;SDS011;22766;48.042;11.192;2022-10-31T04:40:29;4.57;;;1.10;;
36827;SDS011;22766;48.042;11.192;2022-10-31T04:43:28;2.28;;;1.42;;
36827;SDS011;22766;48.042;11.192;2022-10-31T04:45:54;3.72;;;1.83;;
36827;SDS011;22766;48.042;11.192;2022-10-31T04:48:21;2.13;;;1.25;;
36827;SDS011;22766;48.042;11.192;2022-10-31T04:50:48;1.75;;;1.00;;
36827;SDS011;22766;48.042;11.192;2022-10-31T04:53:14;1.77;;;1.02;;
36827;SDS011;22766;48.042;11.192;2022-10-31T04:56:00;1.35;;;0.90;;
36827;SDS011;22766;48.042;11.192;2022-10-31T04:58:35;3.30;;;1.30;;
36827;SDS011;22766;48.042;11.192;2022-10-31T05:01:05;3.45;;;1.00;;
36827;SDS011;22766;48.042;11.192;2022-10-31T05:03:32;4.18;;;1.50;;
36827;SDS011;22766;48.042;11.192;2022-10-31T05:05:58;2.22;;;0.98;;
36827;SDS011;22766;48.042;11.192;2022-10-31T05:08:26;3.08;;;1.10;;
36827;SDS011;22766;48.042;11.192;2022-10-31T05:10:53;3.33;;;1.15;;
36827;SDS011;22766;48.042;11.192;2022-10-31T05:13:23;1.40;;;1.00;;
36827;SDS011;22766;48.042;11.192;2022-10-31T05:16:08;1.48;;;0.95;;
36827;SDS011;22766;48.042;11.192;2022-10-31T05:18:53;4.45;;;1.15;;
36827;SDS011;22766;48.042;11.192;2022-10-31T05:24:02;4.55;;;1.80;;
36827;SDS011;22766;48.042;11.192;2022-10-31T05:26:30;3.28;;;1.30;;
36827;SDS011;22766;48.042;11.192;2022-10-31T05:28:56;3.53;;;1.40;;
36827;SDS011;22766;48.042;11.192;2022-10-31T05:31:23;5.75;;;1.60;;
36827;SDS011;22766;48.042;11.192;2022-10-31T05:33:51;3.92;;;2.22;;
36827;SDS011;22766;48.042;11.192;2022-10-31T05:36:37;5.85;;;1.90;;
36827;SDS011;22766;48.042;11.192;2022-10-31T05:39:17;4.07;;;1.42;;
36827;SDS011;22766;48.042;11.192;2022-10-31T05:41:47;2.67;;;1.65;;
36827;SDS011;22766;48.042;11.192;2022-10-31T05:44:18;7.47;;;1.60;;
36827;SDS011;22766;48.042;11.192;2022-10-31T05:47:06;6.13;;;1.20;;
36827;SDS011;22766;48.042;11.192;2022-10-31T05:50:05;2.85;;;0.98;;
36827;SDS011;22766;48.042;11.192;2022-10-31T05:52:46;3.47;;;1.20;;
36827;SDS011;22766;48.042;11.192;2022-10-31T05:55:20;3.05;;;1.20;;
36827;SDS011;22766;48.042;11.192;2022-10-31T05:58:02;1.98;;;1.00;;
36827;SDS011;22766;48.042;11.192;2022-10-31T06:00:30;3.28;;;1.50;;
36827;SDS011;22766;48.042;11.192;2022-10-31T06:03:05;4.03;;;1.27;;
36827;SDS011;22766;48.042;11.192;2022-10-31T06:05:51;4.72;;;1.50;;
36827;SDS011;22766;48.042;11.192;2022-10-31T06:08:23;1.50;;;1.00;;
36827;SDS011;22766;48.042;11.192;2022-10-31T06:10:50;2.75;;;1.00;;
36827;SDS011;22766;48.042;11.192;2022-10-31T06:13:27;1.73;;;1.05;;
36827;SDS011;22766;48.042;11.192;2022-10-31T06:15:59;3.92;;;1.20;;
36827;SDS011;22766;48.042;11.192;2022-10-31T06:18:33;2.67;;;1.50;;
36827;SDS011;22766;48.042;11.192;2022-10-31T06:20:59;2.78;;;1.17;;
36827;SDS011;22766;48.042;11.192;2022-10-31T06:23:27;3.83;;;1.05;;
36827;SDS011;22766;48.042;11.192;2022-10-31T06:26:13;2.08;;;1.40;;
36827;SDS011;22766;48.042;11.192;2022-10-31T06:28:40;3.42;;;1.20;;
36827;SDS011;22766;48.042;11.192;2022-10-31T06:31:23;1.65;;;1.10;;
36827;SDS011;22766;48.042;11.192;2022-10-31T06:33:49;2.40;;;1.27;;
36827;SDS011;22766;48.042;11.192;2022-10-31T06:36:16;1.83;;;0.88;;
36827;SDS011;22766;48.042;11.192;2022-10-31T06:38:43;1.77;;;1.10;;
36827;SDS011;22766;48.042;11.192;2022-10-31T06:41:10;4.40;;;1.13;;
36827;SDS011;22766;48.042;11.192;2022-10-31T06:43:41;4.63;;;1.67;;
36827;SDS011;22766;48.042;11.192;2022-10-31T06:46:26;2.67;;;1.40;;
36827;SDS011;22766;48.042;11.192;2022-10-31T06:49:09;2.60;;;1.08;;
36827;SDS011;22766;48.042;11.192;2022-10-31T06:51:49;3.08;;;1.02;;
36827;SDS011;22766;48.042;11.192;2022-10-31T06:54:16;2.20;;;1.35;;
36827;SDS011;22766;48.042;11.192;2022-10-31T06:56:45;2.88;;;1.50;;
36827;SDS011;22766;48.042;11.192;2022-10-31T06:59:14;5.13;;;1.58;;
36827;SDS011;22766;48.042;11.192;2022-10-31T07:02:03;2.97;;;1.48;;
36827;SDS011;22766;48.042;11.192;2022-10-31T07:04:31;2.13;;;1.00;;
36827;SDS011;22766;48.042;11.192;2022-10-31T07:06:58;3.65;;;1.40;;
36827;SDS011;22766;48.042;11.192;2022-10-31T07:09:24;3.38;;;1.40;;
36827;SDS011;22766;48.042;11.192;2022-10-31T07:11:52;3.17;;;1.40;;
36827;SDS011;22766;48.042;11.192;2022-10-31T07:14:19;4.55;;;1.50;;
36827;SDS011;22766;48.042;11.192;2022-10-31T07:16:50;3.90;;;1.42;;
36827;SDS011;22766;48.042;11.192;2022-10-31T07:19:22;4.15;;;1.45;;
36827;SDS011;22766;48.042;11.192;2022-10-31T07:21:49;4.88;;;1.50;;
36827;SDS011;22766;48.042;11.192;2022-10-31T07:24:15;2.67;;;1.42;;
36827;SDS011;22766;48.042;11.192;2022-10-31T07:26:42;3.97;;;2.30;;
36827;SDS011;22766;48.042;11.192;2022-10-31T07:29:09;5.28;;;1.70;;
36827;SDS011;22766;48.042;11.192;2022-10-31T07:31:36;5.32;;;2.15;;
36827;SDS011;22766;48.042;11.192;2022-10-31T07:34:10;3.70;;;1.50;;
36827;SDS011;22766;48.042;11.192;2022-10-31T07:36:55;3.97;;;1.83;;
36827;SDS011;22766;48.042;11.192;2022-10-31T07:39:21;5.07;;;1.60;;
36827;SDS011;22766;48.042;11.192;2022-10-31T07:41:48;3.63;;;1.42;;
36827;SDS011;22766;48.042;11.192;2022-10-31T07:44:17;2.67;;;1.80;;
36827;SDS011;22766;48.042;11.192;2022-10-31T07:47:02;5.25;;;1.48;;
36827;SDS011;22766;48.042;11.192;2022-10-31T07:50:05;3.97;;;1.30;;
36827;SDS011;22766;48.042;11.192;2022-10-31T07:53:02;5.38;;;1.77;;
36827;SDS011;22766;48.042;11.192;2022-10-31T07:55:50;4.10;;;1.52;;
36827;SDS011;22766;48.042;11.192;2022-10-31T07:58:18;1.50;;;1.02;;
36827;SDS011;22766;48.042;11.192;2022-10-31T08:00:45;2.35;;;1.33;;
36827;SDS011;22766;48.042;11.192;2022-10-31T08:03:18;2.40;;;1.40;;
36827;SDS011;22766;48.042;11.192;2022-10-31T08:05:57;2.67;;;1.15;;
36827;SDS011;22766;48.042;11.192;2022-10-31T08:08:53;7.00;;;1.42;;
36827;SDS011;22766;48.042;11.192;2022-10-31T08:11:21;4.35;;;1.80;;
36827;SDS011;22766;48.042;11.192;2022-10-31T08:13:48;3.22;;;1.38;;
36827;SDS011;22766;48.042;11.192;2022-10-31T08:16:14;2.78;;;1.30;;
36827;SDS011;22766;48.042;11.192;2022-10-31T08:18:49;3.35;;;1.20;;
36827;SDS011;22766;48.042;11.192;2022-10-31T08:21:16;3.60;;;1.30;;
36827;SDS011;22766;48.042;11.192;2022-10-31T08:23:44;3.83;;;1.45;;
36827;SDS011;22766;48.042;11.192;2022-10-31T08:26:13;5.68;;;1.52;;
36827;SDS011;22766;48.042;11.192;2022-10-31T08:28:41;2.80;;;1.30;;
36827;SDS011;22766;48.042;11.192;2022-10-31T08:31:08;5.57;;;1.75;;
36827;SDS011;22766;48.042;11.192;2022-10-31T08:33:39;5.88;;;1.60;;
36827;SDS011;22766;48.042;11.192;2022-10-31T08:36:17;4.82;;;2.00;;
36827;SDS011;22766;48.042;11.192;2022-10-31T08:38:50;7.82;;;3.00;;
36827;SDS011;22766;48.042;11.192;2022-10-31T08:41:16;3.53;;;1.70;;
36827;SDS011;22766;48.042;11.192;2022-10-31T08:43:43;4.70;;;1.73;;
36827;SDS011;22766;48.042;11.192;2022-10-31T08:46:10;5.63;;;2.10;;
36827;SDS011;22766;48.042;11.192;2022-10-31T08:48:38;4.85;;;1.88;;
36827;SDS011;22766;48.042;11.192;2022-10-31T08:51:05;3.88;;;1.63;;
36827;SDS011;22766;48.042;11.192;2022-10-31T08:53:32;4.85;;;2.03;;
36827;SDS011;22766;48.042;11.192;2022-10-31T08:56:18;4.18;;;2.00;;
36827;SDS011;22766;48.042;11.192;2022-10-31T08:58:45;7.88;;;2.38;;
36827;SDS011;22766;48.042;11.192;2022-10-31T09:01:13;6.47;;;1.95;;
36827;SDS011;22766;48.042;11.192;2022-10-31T09:03:41;5.40;;;2.20;;
36827;SDS011;22766;48.042;11.192;2022-10-31T09:06:09;5.40;;;2.42;;
36827;SDS011;22766;48.042;11.192;2022-10-31T09:08:36;5.32;;;2.30;;
36827;SDS011;22766;48.042;11.192;2022-10-31T09:11:03;10.52;;;2.05;;
36827;SDS011;22766;48.042;11.192;2022-10-31T09:13:48;6.03;;;2.40;;
36827;SDS011;22766;48.042;11.192;2022-10-31T09:16:47;6.95;;;1.70;;
36827;SDS011;22766;48.042;11.192;2022-10-31T09:19:20;7.75;;;2.15;;
36827;SDS011;22766;48.042;11.192;2022-10-31T09:21:47;6.95;;;2.80;;
36827;SDS011;22766;48.042;11.192;2022-10-31T09:24:13;4.78;;;2.00;;
36827;SDS011;22766;48.042;11.192;2022-10-31T09:26:41;6.03;;;2.13;;
36827;SDS011;22766;48.042;11.192;2022-10-31T09:29:24;3.33;;;1.58;;
36827;SDS011;22766;48.042;11.192;2022-10-31T09:31:56;4.38;;;2.38;;
36827;SDS011;22766;48.042;11.192;2022-10-31T09:34:32;7.55;;;2.00;;
36827;SDS011;22766;48.042;11.192;2022-10-31T09:37:08;7.25;;;1.70;;
36827;SDS011;22766;48.042;11.192;2022-10-31T09:39:34;4.97;;;2.03;;
36827;SDS011;22766;48.042;11.192;2022-10-31T09:45:26;6.80;;;1.90;;
36827;SDS011;22766;48.042;11.192;2022-10-31T09:52:23;7.38;;;2.08;;
36827;SDS011;22766;48.042;11.192;2022-10-31T09:54:54;8.70;;;2.30;;
36827;SDS011;22766;48.042;11.192;2022-10-31T09:57:27;7.13;;;1.80;;
36827;SDS011;22766;48.042;11.192;2022-10-31T09:59:58;7.18;;;2.13;;
36827;SDS011;22766;48.042;11.192;2022-10-31T10:05:10;4.65;;;1.83;;
36827;SDS011;22766;48.042;11.192;2022-10-31T10:21:54;5.15;;;1.25;;
36827;SDS011;22766;48.042;11.192;2022-10-31T10:27:09;4.90;;;1.30;;
36827;SDS011;22766;48.042;11.192;2022-10-31T10:32:40;7.03;;;1.67;;
36827;SDS011;22766;48.042;11.192;2022-10-31T10:37:44;5.43;;;1.60;;
36827;SDS011;22766;48.042;11.192;2022-10-31T10:40:14;6.80;;;1.58;;
36827;SDS011;22766;48.042;11.192;2022-10-31T10:42:44;9.10;;;1.87;;
36827;SDS011;22766;48.042;11.192;2022-10-31T10:45:35;2.63;;;1.77;;
36827;SDS011;22766;48.042;11.192;2022-10-31T10:51:04;5.90;;;1.27;;
36827;SDS011;22766;48.042;11.192;2022-10-31T10:56:53;5.93;;;1.30;;
36827;SDS011;22766;48.042;11.192;2022-10-31T10:59:44;7.20;;;1.52;;
36827;SDS011;22766;48.042;11.192;2022-10-31T11:02:19;6.30;;;1.15;;
36827;SDS011;22766;48.042;11.192;2022-10-31T11:04:51;4.97;;;1.27;;
36827;SDS011;22766;48.042;11.192;2022-10-31T11:07:21;5.55;;;1.15;;
36827;SDS011;22766;48.042;11.192;2022-10-31T11:09:48;4.13;;;1.15;;
36827;SDS011;22766;48.042;11.192;2022-10-31T11:12:29;6.70;;;1.17;;
36827;SDS011;22766;48.042;11.192;2022-10-31T11:15:00;6.70;;;1.08;;
36827;SDS011;22766;48.042;11.192;2022-10-31T11:17:37;6.47;;;1.08;;
36827;SDS011;22766;48.042;11.192;2022-10-31T11:22:44;4.95;;;1.40;;
36827;SDS011;22766;48.042;11.192;2022-10-31T11:27:46;4.45;;;1.20;;
36827;SDS011;22766;48.042;11.192;2022-10-31T11:30:13;4.90;;;1.30;;
36827;SDS011;22766;48.042;11.192;2022-10-31T11:32:42;4.95;;;2.17;;
36827;SDS011;22766;48.042;11.192;2022-10-31T11:35:17;3.83;;;1.23;;
36827;SDS011;22766;48.042;11.192;2022-10-31T11:37:46;4.85;;;1.13;;
36827;SDS011;22766;48.042;11.192;2022-10-31T11:40:16;7.40;;;1.63;;
36827;SDS011;22766;48.042;11.192;2022-10-31T11:42:45;4.05;;;1.50;;
36827;SDS011;22766;48.042;11.192;2022-10-31T11:47:50;5.22;;;1.30;;
36827;SDS011;22766;48.042;11.192;2022-10-31T11:50:26;4.63;;;1.08;;
36827;SDS011;22766;48.042;11.192;2022-10-31T11:53:03;4.18;;;1.30;;
36827;SDS011;22766;48.042;11.192;2022-10-31T11:55:38;3.22;;;1.05;;
36827;SDS011;22766;48.042;11.192;2022-10-31T11:58:19;4.20;;;1.33;;
36827;SDS011;22766;48.042;11.192;2022-10-31T12:00:52;8.80;;;1.67;;
36827;SDS011;22766;48.042;11.192;2022-10-31T12:03:29;4.13;;;1.35;;
36827;SDS011;22766;48.042;11.192;2022-10-31T12:06:13;3.55;;;1.08;;
36827;SDS011;22766;48.042;11.192;2022-10-31T12:08:44;8.43;;;1.40;;
36827;SDS011;22766;48.042;11.192;2022-10-31T12:14:57;2.97;;;1.20;;
36827;SDS011;22766;48.042;11.192;2022-10-31T12:17:22;3.40;;;1.20;;
36827;SDS011;22766;48.042;11.192;2022-10-31T12:20:13;4.63;;;1.80;;
36827;SDS011;22766;48.042;11.192;2022-10-31T12:22:59;4.55;;;1.77;;
36827;SDS011;22766;48.042;11.192;2022-10-31T12:25:38;5.20;;;1.42;;
36827;SDS011;22766;48.042;11.192;2022-10-31T12:39:54;5.32;;;1.30;;
36827;SDS011;22766;48.042;11.192;2022-10-31T12:58:56;5.53;;;1.45;;
36827;SDS011;22766;48.042;11.192;2022-10-31T13:01:30;3.40;;;1.10;;
36827;SDS011;22766;48.042;11.192;2022-10-31T13:09:32;4.50;;;1.10;;
36827;SDS011;22766;48.042;11.192;2022-10-31T13:12:13;3.53;;;1.17;;
36827;SDS011;22766;48.042;11.192;2022-10-31T13:17:37;3.90;;;0.97;;
36827;SDS011;22766;48.042;11.192;2022-10-31T13:22:51;4.55;;;1.17;;
36827;SDS011;22766;48.042;11.192;2022-10-31T13:25:25;5.93;;;1.08;;
36827;SDS011;22766;48.042;11.192;2022-10-31T13:28:01;4.47;;;1.20;;
36827;SDS011;22766;48.042;11.192;2022-10-31T13:30:32;4.80;;;0.95;;
36827;SDS011;22766;48.042;11.192;2022-10-31T13:33:11;2.58;;;1.05;;
36827;SDS011;22766;48.042;11.192;2022-10-31T13:41:26;5.15;;;1.30;;
36827;SDS011;22766;48.042;11.192;2022-10-31T13:46:24;2.40;;;1.00;;
36827;SDS011;22766;48.042;11.192;2022-10-31T13:48:59;4.28;;;1.00;;
36827;SDS011;22766;48.042;11.192;2022-10-31T13:51:27;4.32;;;0.77;;
36827;SDS011;22766;48.042;11.192;2022-10-31T13:53:58;3.15;;;1.23;;
36827;SDS011;22766;48.042;11.192;2022-10-31T13:56:30;5.05;;;1.15;;
36827;SDS011;22766;48.042;11.192;2022-10-31T14:01:29;3.95;;;0.90;;
36827;SDS011;22766;48.042;11.192;2022-10-31T14:12:09;5.05;;;1.02;;
36827;SDS011;22766;48.042;11.192;2022-10-31T14:14:49;7.25;;;1.13;;
36827;SDS011;22766;48.042;11.192;2022-10-31T14:17:27;3.92;;;1.15;;
36827;SDS011;22766;48.042;11.192;2022-10-31T14:20:01;4.28;;;1.13;;
36827;SDS011;22766;48.042;11.192;2022-10-31T14:22:37;6.18;;;1.35;;
36827;SDS011;22766;48.042;11.192;2022-10-31T14:27:59;2.80;;;0.90;;
36827;SDS011;22766;48.042;11.192;2022-10-31T14:30:29;3.77;;;1.20;;
36827;SDS011;22766;48.042;11.192;2022-10-31T14:33:00;3.85;;;1.02;;
36827;SDS011;22766;48.042;11.192;2022-10-31T14:35:34;4.30;;;1.27;;
36827;SDS011;22766;48.042;11.192;2022-10-31T14:38:19;4.50;;;1.20;;
36827;SDS011;22766;48.042;11.192;2022-10-31T14:41:07;5.82;;;1.35;;
36827;SDS011;22766;48.042;11.192;2022-10-31T14:52:05;3.10;;;0.95;;
36827;SDS011;22766;48.042;11.192;2022-10-31T14:54:36;3.47;;;1.23;;
36827;SDS011;22766;48.042;11.192;2022-10-31T14:57:16;5.07;;;1.00;;
36827;SDS011;22766;48.042;11.192;2022-10-31T14:59:49;5.47;;;1.10;;
36827;SDS011;22766;48.042;11.192;2022-10-31T15:02:29;3.45;;;1.02;;
36827;SDS011;22766;48.042;11.192;2022-10-31T15:05:06;5.30;;;1.35;;
36827;SDS011;22766;48.042;11.192;2022-10-31T15:07:34;3.03;;;1.10;;
36827;SDS011;22766;48.042;11.192;2022-10-31T15:10:15;1.95;;;1.05;;
36827;SDS011;22766;48.042;11.192;2022-10-31T15:12:47;11.95;;;1.60;;
36827;SDS011;22766;48.042;11.192;2022-10-31T15:15:14;9.57;;;1.98;;
36827;SDS011;22766;48.042;11.192;2022-10-31T15:17:47;4.80;;;1.75;;
36827;SDS011;22766;48.042;11.192;2022-10-31T15:20:19;3.28;;;1.10;;
36827;SDS011;22766;48.042;11.192;2022-10-31T15:22:49;2.65;;;1.10;;
36827;SDS011;22766;48.042;11.192;2022-10-31T15:25:20;2.92;;;1.13;;
36827;SDS011;22766;48.042;11.192;2022-10-31T15:27:48;4.88;;;1.20;;
36827;SDS011;22766;48.042;11.192;2022-10-31T15:30:23;4.70;;;1.20;;
36827;SDS011;22766;48.042;11.192;2022-10-31T15:32:52;5.80;;;1.40;;
36827;SDS011;22766;48.042;11.192;2022-10-31T15:35:29;4.53;;;1.10;;
36827;SDS011;22766;48.042;11.192;2022-10-31T15:37:57;5.35;;;1.50;;
36827;SDS011;22766;48.042;11.192;2022-10-31T15:40:26;4.57;;;1.50;;
36827;SDS011;22766;48.042;11.192;2022-10-31T15:45:24;3.65;;;0.90;;
36827;SDS011;22766;48.042;11.192;2022-10-31T15:50:50;3.95;;;1.20;;
36827;SDS011;22766;48.042;11.192;2022-10-31T15:55:48;4.75;;;1.15;;
36827;SDS011;22766;48.042;11.192;2022-10-31T15:58:18;8.88;;;1.25;;
36827;SDS011;22766;48.042;11.192;2022-10-31T16:00:45;7.40;;;1.02;;
36827;SDS011;22766;48.042;11.192;2022-10-31T16:03:26;3.00;;;1.13;;
36827;SDS011;22766;48.042;11.192;2022-10-31T16:05:55;8.53;;;1.30;;
36827;SDS011;22766;48.042;11.192;2022-10-31T16:10:52;4.70;;;0.80;;
36827;SDS011;22766;48.042;11.192;2022-10-31T16:13:21;6.80;;;1.48;;
36827;SDS011;22766;48.042;11.192;2022-10-31T16:15:54;2.03;;;1.20;;
36827;SDS011;22766;48.042;11.192;2022-10-31T16:18:44;3.38;;;0.90;;
36827;SDS011;22766;48.042;11.192;2022-10-31T16:21:11;3.60;;;1.13;;
36827;SDS011;22766;48.042;11.192;2022-10-31T16:23:39;5.38;;;1.27;;
36827;SDS011;22766;48.042;11.192;2022-10-31T16:26:14;3.50;;;1.27;;
36827;SDS011;22766;48.042;11.192;2022-10-31T16:28:54;8.18;;;1.40;;
36827;SDS011;22766;48.042;11.192;2022-10-31T16:31:35;6.05;;;1.35;;
36827;SDS011;22766;48.042;11.192;2022-10-31T16:34:05;7.35;;;2.22;;
36827;SDS011;22766;48.042;11.192;2022-10-31T16:36:50;3.55;;;1.10;;
36827;SDS011;22766;48.042;11.192;2022-10-31T16:39:17;3.70;;;1.65;;
36827;SDS011;22766;48.042;11.192;2022-10-31T16:41:44;2.50;;;0.88;;
36827;SDS011;22766;48.042;11.192;2022-10-31T16:44:15;4.15;;;1.60;;
36827;SDS011;22766;48.042;11.192;2022-10-31T16:46:44;5.90;;;1.50;;
36827;SDS011;22766;48.042;11.192;2022-10-31T16:49:11;6.80;;;1.23;;
36827;SDS011;22766;48.042;11.192;2022-10-31T16:51:38;3.03;;;0.98;;
36827;SDS011;22766;48.042;11.192;2022-10-31T16:54:05;5.82;;;1.60;;
36827;SDS011;22766;48.042;11.192;2022-10-31T16:56:33;4.80;;;1.70;;
36827;SDS011;22766;48.042;11.192;2022-10-31T16:59:02;3.20;;;1.40;;
36827;SDS011;22766;48.042;11.192;2022-10-31T17:01:37;4.85;;;1.33;;
36827;SDS011;22766;48.042;11.192;2022-10-31T17:04:07;3.55;;;0.93;;
36827;SDS011;22766;48.042;11.192;2022-10-31T17:09:04;4.28;;;1.02;;
36827;SDS011;22766;48.042;11.192;2022-10-31T17:11:31;3.13;;;1.40;;
36827;SDS011;22766;48.042;11.192;2022-10-31T17:13:57;6.05;;;1.65;;
36827;SDS011;22766;48.042;11.192;2022-10-31T17:16:24;5.38;;;1.60;;
36827;SDS011;22766;48.042;11.192;2022-10-31T17:18:51;7.20;;;1.20;;
36827;SDS011;22766;48.042;11.192;2022-10-31T17:21:21;6.80;;;1.38;;
36827;SDS011;22766;48.042;11.192;2022-10-31T17:23:49;3.47;;;0.95;;
36827;SDS011;22766;48.042;11.192;2022-10-31T17:26:16;4.78;;;1.90;;
36827;SDS011;22766;48.042;11.192;2022-10-31T17:28:44;6.78;;;1.48;;
36827;SDS011;22766;48.042;11.192;2022-10-31T17:31:25;5.03;;;1.77;;
36827;SDS011;22766;48.042;11.192;2022-10-31T17:33:55;4.55;;;1.20;;
36827;SDS011;22766;48.042;11.192;2022-10-31T17:36:29;3.80;;;1.50;;
36827;SDS011;22766;48.042;11.192;2022-10-31T17:38:56;5.03;;;1.50;;
36827;SDS011;22766;48.042;11.192;2022-10-31T17:41:22;5.88;;;1.70;;
36827;SDS011;22766;48.042;11.192;2022-10-31T17:43:55;2.95;;;1.25;;
36827;SDS011;22766;48.042;11.192;2022-10-31T17:46:23;5.18;;;1.80;;
36827;SDS011;22766;48.042;11.192;2022-10-31T17:48:50;5.10;;;1.55;;
36827;SDS011;22766;48.042;11.192;2022-10-31T17:51:16;3.83;;;1.08;;
36827;SDS011;22766;48.042;11.192;2022-10-31T17:53:43;5.25;;;1.42;;
36827;SDS011;22766;48.042;11.192;2022-10-31T17:56:10;4.22;;;1.27;;
36827;SDS011;22766;48.042;11.192;2022-10-31T17:58:37;6.50;;;1.52;;
36827;SDS011;22766;48.042;11.192;2022-10-31T18:01:07;2.88;;;1.17;;